sensor_id;sensor_type;location;lat;lon;timestamp;temperature;humidity
21895;DHT22;11112;51.270;7.224;2023-08-06T00:02:26;17.60;99.90
21895;DHT22;11112;51.270;7.224;2023-08-06T00:04:55;17.60;99.90
21895;DHT22;11112;51.270;7.224;2023-08-06T00:07:22;17.70;99.90
21895;DHT22;11112;51.270;7.224;2023-08-06T00:09:49;17.60;99.90
21895;DHT22;11112;51.270;7.224;2023-08-06T00:12:16;17.60;99.90
21895;DHT22;11112;51.270;7.224;2023-08-06T00:14:43;17.70;99.90
21895;DHT22;11112;51.270;7.224;2023-08-06T00:17:10;17.70;99.90
21895;DHT22;11112;51.270;7.224;2023-08-06T00:19:37;17.70;99.90
21895;DHT22;11112;51.270;7.224;2023-08-06T00:22:06;17.70;99.90
21895;DHT22;11112;51.270;7.224;2023-08-06T00:24:33;17.70;99.90
21895;DHT22;11112;51.270;7.224;2023-08-06T00:27:01;17.60;99.90
21895;DHT22;11112;51.270;7.224;2023-08-06T00:29:28;17.60;99.90
21895;DHT22;11112;51.270;7.224;2023-08-06T00:31:55;17.60;99.90
21895;DHT22;11112;51.270;7.224;2023-08-06T00:34:22;17.60;99.90
21895;DHT22;11112;51.270;7.224;2023-08-06T00:36:49;17.60;99.90
21895;DHT22;11112;51.270;7.224;2023-08-06T00:39:17;17.60;99.90
21895;DHT22;11112;51.270;7.224;2023-08-06T00:41:44;17.60;99.90
21895;DHT22;11112;51.270;7.224;2023-08-06T00:44:11;17.60;99.90
21895;DHT22;11112;51.270;7.224;2023-08-06T00:46:38;17.60;99.90
21895;DHT22;11112;51.270;7.224;2023-08-06T00:49:06;17.60;99.90
21895;DHT22;11112;51.270;7.224;2023-08-06T00:51:34;17.60;99.90
21895;DHT22;11112;51.270;7.224;2023-08-06T00:54:02;17.60;99.90
21895;DHT22;11112;51.270;7.224;2023-08-06T00:56:31;17.60;99.90
21895;DHT22;11112;51.270;7.224;2023-08-06T00:58:59;17.60;99.90
21895;DHT22;11112;51.270;7.224;2023-08-06T01:01:27;17.50;99.90
21895;DHT22;11112;51.270;7.224;2023-08-06T01:03:54;17.60;99.90
21895;DHT22;11112;51.270;7.224;2023-08-06T01:06:45;17.50;99.90
21895;DHT22;11112;51.270;7.224;2023-08-06T01:09:26;17.50;99.90
21895;DHT22;11112;51.270;7.224;2023-08-06T01:12:06;17.50;99.90
21895;DHT22;11112;51.270;7.224;2023-08-06T01:14:45;17.50;99.90
21895;DHT22;11112;51.270;7.224;2023-08-06T01:17:16;17.50;99.90
21895;DHT22;11112;51.270;7.224;2023-08-06T01:19:43;17.50;99.90
21895;DHT22;11112;51.270;7.224;2023-08-06T01:22:11;17.50;99.90
21895;DHT22;11112;51.270;7.224;2023-08-06T01:24:39;17.50;99.90
21895;DHT22;11112;51.270;7.224;2023-08-06T01:27:13;17.50;99.90
21895;DHT22;11112;51.270;7.224;2023-08-06T01:29:46;17.50;99.90
21895;DHT22;11112;51.270;7.224;2023-08-06T01:32:16;17.50;99.90
21895;DHT22;11112;51.270;7.224;2023-08-06T01:34:45;17.50;99.90
21895;DHT22;11112;51.270;7.224;2023-08-06T01:37:15;17.50;99.90
21895;DHT22;11112;51.270;7.224;2023-08-06T01:39:43;17.50;99.90
21895;DHT22;11112;51.270;7.224;2023-08-06T01:42:10;17.50;99.90
21895;DHT22;11112;51.270;7.224;2023-08-06T01:44:37;17.50;99.90
21895;DHT22;11112;51.270;7.224;2023-08-06T01:47:05;17.50;99.90
21895;DHT22;11112;51.270;7.224;2023-08-06T01:49:32;17.50;99.90
21895;DHT22;11112;51.270;7.224;2023-08-06T01:51:59;17.50;99.90
21895;DHT22;11112;51.270;7.224;2023-08-06T01:54:27;17.50;99.90
21895;DHT22;11112;51.270;7.224;2023-08-06T01:56:54;17.50;99.90
21895;DHT22;11112;51.270;7.224;2023-08-06T01:59:23;17.50;99.90
21895;DHT22;11112;51.270;7.224;2023-08-06T02:01:51;17.50;99.90
21895;DHT22;11112;51.270;7.224;2023-08-06T02:04:18;17.50;99.90
21895;DHT22;11112;51.270;7.224;2023-08-06T02:06:45;17.50;99.90
21895;DHT22;11112;51.270;7.224;2023-08-06T02:09:12;17.50;99.90
21895;DHT22;11112;51.270;7.224;2023-08-06T02:11:40;17.50;99.90
21895;DHT22;11112;51.270;7.224;2023-08-06T02:14:07;17.40;99.90
21895;DHT22;11112;51.270;7.224;2023-08-06T02:16:35;17.50;99.90
21895;DHT22;11112;51.270;7.224;2023-08-06T02:19:02;17.50;99.90
21895;DHT22;11112;51.270;7.224;2023-08-06T02:21:29;17.50;99.90
21895;DHT22;11112;51.270;7.224;2023-08-06T02:23:56;17.50;99.90
21895;DHT22;11112;51.270;7.224;2023-08-06T02:26:23;17.50;99.90
21895;DHT22;11112;51.270;7.224;2023-08-06T02:28:52;17.50;99.90
21895;DHT22;11112;51.270;7.224;2023-08-06T02:31:19;17.50;99.90
21895;DHT22;11112;51.270;7.224;2023-08-06T02:33:46;17.50;99.90
21895;DHT22;11112;51.270;7.224;2023-08-06T02:36:14;17.50;99.90
21895;DHT22;11112;51.270;7.224;2023-08-06T02:38:41;17.50;99.90
21895;DHT22;11112;51.270;7.224;2023-08-06T02:41:08;17.50;99.90
21895;DHT22;11112;51.270;7.224;2023-08-06T02:43:35;17.50;99.90
21895;DHT22;11112;51.270;7.224;2023-08-06T02:46:03;17.50;99.90
21895;DHT22;11112;51.270;7.224;2023-08-06T02:48:30;17.50;99.90
21895;DHT22;11112;51.270;7.224;2023-08-06T02:50:57;17.50;99.90
21895;DHT22;11112;51.270;7.224;2023-08-06T02:53:25;17.50;99.90
21895;DHT22;11112;51.270;7.224;2023-08-06T02:55:52;17.50;99.90
21895;DHT22;11112;51.270;7.224;2023-08-06T02:58:20;17.50;99.90
21895;DHT22;11112;51.270;7.224;2023-08-06T03:00:59;17.50;99.90
21895;DHT22;11112;51.270;7.224;2023-08-06T03:03:29;17.50;99.90
21895;DHT22;11112;51.270;7.224;2023-08-06T03:05:56;17.50;99.90
21895;DHT22;11112;51.270;7.224;2023-08-06T03:08:24;17.50;99.90
21895;DHT22;11112;51.270;7.224;2023-08-06T03:10:51;17.50;99.90
21895;DHT22;11112;51.270;7.224;2023-08-06T03:13:19;17.50;99.90
21895;DHT22;11112;51.270;7.224;2023-08-06T03:15:52;17.50;99.90
21895;DHT22;11112;51.270;7.224;2023-08-06T03:18:20;17.50;99.90
21895;DHT22;11112;51.270;7.224;2023-08-06T03:20:49;17.50;99.90
21895;DHT22;11112;51.270;7.224;2023-08-06T03:23:16;17.50;99.90
21895;DHT22;11112;51.270;7.224;2023-08-06T03:25:43;17.50;99.90
21895;DHT22;11112;51.270;7.224;2023-08-06T03:28:10;17.50;99.90
21895;DHT22;11112;51.270;7.224;2023-08-06T03:30:37;17.50;99.90
21895;DHT22;11112;51.270;7.224;2023-08-06T03:33:04;17.50;99.90
21895;DHT22;11112;51.270;7.224;2023-08-06T03:35:32;17.40;99.90
21895;DHT22;11112;51.270;7.224;2023-08-06T03:38:00;17.40;99.90
21895;DHT22;11112;51.270;7.224;2023-08-06T03:40:27;17.40;99.90
21895;DHT22;11112;51.270;7.224;2023-08-06T03:42:54;17.40;99.90
21895;DHT22;11112;51.270;7.224;2023-08-06T03:45:21;17.40;99.90
21895;DHT22;11112;51.270;7.224;2023-08-06T03:47:48;17.40;99.90
21895;DHT22;11112;51.270;7.224;2023-08-06T03:50:15;17.40;99.90
21895;DHT22;11112;51.270;7.224;2023-08-06T03:52:43;17.40;99.90
21895;DHT22;11112;51.270;7.224;2023-08-06T03:55:11;17.40;99.90
21895;DHT22;11112;51.270;7.224;2023-08-06T03:57:38;17.40;99.90
21895;DHT22;11112;51.270;7.224;2023-08-06T04:00:06;17.40;99.90
21895;DHT22;11112;51.270;7.224;2023-08-06T04:02:34;17.40;99.90
21895;DHT22;11112;51.270;7.224;2023-08-06T04:05:01;17.40;99.90
21895;DHT22;11112;51.270;7.224;2023-08-06T04:07:28;17.40;99.90
21895;DHT22;11112;51.270;7.224;2023-08-06T04:09:58;17.40;99.90
21895;DHT22;11112;51.270;7.224;2023-08-06T04:12:27;17.40;99.90
21895;DHT22;11112;51.270;7.224;2023-08-06T04:14:55;17.40;99.90
21895;DHT22;11112;51.270;7.224;2023-08-06T04:17:23;17.40;99.90
21895;DHT22;11112;51.270;7.224;2023-08-06T04:19:51;17.40;99.90
21895;DHT22;11112;51.270;7.224;2023-08-06T04:22:20;17.40;99.90
21895;DHT22;11112;51.270;7.224;2023-08-06T04:24:48;17.40;99.90
21895;DHT22;11112;51.270;7.224;2023-08-06T04:27:15;17.40;99.90
21895;DHT22;11112;51.270;7.224;2023-08-06T04:29:44;17.30;99.90
21895;DHT22;11112;51.270;7.224;2023-08-06T04:32:13;17.30;99.90
21895;DHT22;11112;51.270;7.224;2023-08-06T04:34:40;17.30;99.90
21895;DHT22;11112;51.270;7.224;2023-08-06T04:37:07;17.30;99.90
21895;DHT22;11112;51.270;7.224;2023-08-06T04:39:34;17.30;99.90
21895;DHT22;11112;51.270;7.224;2023-08-06T04:42:01;17.30;99.90
21895;DHT22;11112;51.270;7.224;2023-08-06T04:44:28;17.30;99.90
21895;DHT22;11112;51.270;7.224;2023-08-06T04:46:56;17.40;99.90
21895;DHT22;11112;51.270;7.224;2023-08-06T04:49:24;17.40;99.90
21895;DHT22;11112;51.270;7.224;2023-08-06T04:51:51;17.30;99.90
21895;DHT22;11112;51.270;7.224;2023-08-06T04:54:18;17.30;99.90
21895;DHT22;11112;51.270;7.224;2023-08-06T04:56:45;17.40;99.90
21895;DHT22;11112;51.270;7.224;2023-08-06T04:59:12;17.40;99.90
21895;DHT22;11112;51.270;7.224;2023-08-06T05:01:39;17.40;99.90
21895;DHT22;11112;51.270;7.224;2023-08-06T05:04:08;17.40;99.90
21895;DHT22;11112;51.270;7.224;2023-08-06T05:06:35;17.40;99.90
21895;DHT22;11112;51.270;7.224;2023-08-06T05:09:03;17.40;99.90
21895;DHT22;11112;51.270;7.224;2023-08-06T05:11:31;17.40;99.90
21895;DHT22;11112;51.270;7.224;2023-08-06T05:13:58;17.40;99.90
21895;DHT22;11112;51.270;7.224;2023-08-06T05:16:25;17.40;99.90
21895;DHT22;11112;51.270;7.224;2023-08-06T05:18:52;17.40;99.90
21895;DHT22;11112;51.270;7.224;2023-08-06T05:21:21;17.50;99.90
21895;DHT22;11112;51.270;7.224;2023-08-06T05:23:48;17.50;99.90
21895;DHT22;11112;51.270;7.224;2023-08-06T05:26:14;17.50;99.90
21895;DHT22;11112;51.270;7.224;2023-08-06T05:28:44;17.60;99.90
21895;DHT22;11112;51.270;7.224;2023-08-06T05:31:11;17.60;99.90
21895;DHT22;11112;51.270;7.224;2023-08-06T05:33:38;17.60;99.90
21895;DHT22;11112;51.270;7.224;2023-08-06T05:36:05;17.60;99.90
21895;DHT22;11112;51.270;7.224;2023-08-06T05:38:34;17.60;99.90
21895;DHT22;11112;51.270;7.224;2023-08-06T05:41:01;17.60;99.90
21895;DHT22;11112;51.270;7.224;2023-08-06T05:43:28;17.60;99.90
21895;DHT22;11112;51.270;7.224;2023-08-06T05:45:56;17.60;99.90
21895;DHT22;11112;51.270;7.224;2023-08-06T05:48:23;17.60;99.90
21895;DHT22;11112;51.270;7.224;2023-08-06T05:50:50;17.50;99.90
21895;DHT22;11112;51.270;7.224;2023-08-06T05:53:18;17.50;99.90
21895;DHT22;11112;51.270;7.224;2023-08-06T05:55:47;17.50;99.90
21895;DHT22;11112;51.270;7.224;2023-08-06T05:58:14;17.50;99.90
21895;DHT22;11112;51.270;7.224;2023-08-06T06:00:41;17.50;99.90
21895;DHT22;11112;51.270;7.224;2023-08-06T06:03:08;17.50;99.90
21895;DHT22;11112;51.270;7.224;2023-08-06T06:05:37;17.50;99.90
21895;DHT22;11112;51.270;7.224;2023-08-06T06:08:05;17.50;99.90
21895;DHT22;11112;51.270;7.224;2023-08-06T06:10:32;17.50;99.90
21895;DHT22;11112;51.270;7.224;2023-08-06T06:13:00;17.50;99.90
21895;DHT22;11112;51.270;7.224;2023-08-06T06:15:27;17.50;99.90
21895;DHT22;11112;51.270;7.224;2023-08-06T06:17:54;17.40;99.90
21895;DHT22;11112;51.270;7.224;2023-08-06T06:20:22;17.40;99.90
21895;DHT22;11112;51.270;7.224;2023-08-06T06:22:49;17.40;99.90
21895;DHT22;11112;51.270;7.224;2023-08-06T06:25:16;17.40;99.90
21895;DHT22;11112;51.270;7.224;2023-08-06T06:27:43;17.40;99.90
21895;DHT22;11112;51.270;7.224;2023-08-06T06:30:12;17.40;99.90
21895;DHT22;11112;51.270;7.224;2023-08-06T06:32:39;17.40;99.90
21895;DHT22;11112;51.270;7.224;2023-08-06T06:35:08;17.50;99.90
21895;DHT22;11112;51.270;7.224;2023-08-06T06:37:35;17.50;99.90
21895;DHT22;11112;51.270;7.224;2023-08-06T06:40:02;17.50;99.90
21895;DHT22;11112;51.270;7.224;2023-08-06T06:42:30;17.50;99.90
21895;DHT22;11112;51.270;7.224;2023-08-06T06:44:57;17.50;99.90
21895;DHT22;11112;51.270;7.224;2023-08-06T06:47:25;17.60;99.90
21895;DHT22;11112;51.270;7.224;2023-08-06T06:49:53;17.70;99.90
21895;DHT22;11112;51.270;7.224;2023-08-06T06:52:20;17.70;99.90
21895;DHT22;11112;51.270;7.224;2023-08-06T06:54:47;17.70;99.90
21895;DHT22;11112;51.270;7.224;2023-08-06T06:57:14;17.70;99.90
21895;DHT22;11112;51.270;7.224;2023-08-06T06:59:41;17.70;99.90
21895;DHT22;11112;51.270;7.224;2023-08-06T07:02:08;17.80;99.90
21895;DHT22;11112;51.270;7.224;2023-08-06T07:04:36;17.80;99.90
21895;DHT22;11112;51.270;7.224;2023-08-06T07:07:04;17.80;99.90
21895;DHT22;11112;51.270;7.224;2023-08-06T07:09:31;17.90;99.90
21895;DHT22;11112;51.270;7.224;2023-08-06T07:11:58;18.00;99.90
21895;DHT22;11112;51.270;7.224;2023-08-06T07:14:28;18.00;99.90
21895;DHT22;11112;51.270;7.224;2023-08-06T07:16:55;18.00;99.90
21895;DHT22;11112;51.270;7.224;2023-08-06T07:19:22;18.00;99.90
21895;DHT22;11112;51.270;7.224;2023-08-06T07:21:51;18.10;99.90
21895;DHT22;11112;51.270;7.224;2023-08-06T07:24:18;18.30;99.90
21895;DHT22;11112;51.270;7.224;2023-08-06T07:26:45;18.40;99.90
21895;DHT22;11112;51.270;7.224;2023-08-06T07:29:12;18.50;99.90
21895;DHT22;11112;51.270;7.224;2023-08-06T07:31:45;18.40;99.90
21895;DHT22;11112;51.270;7.224;2023-08-06T07:34:12;18.40;99.90
21895;DHT22;11112;51.270;7.224;2023-08-06T07:36:39;18.40;99.90
21895;DHT22;11112;51.270;7.224;2023-08-06T07:39:07;18.40;99.90
21895;DHT22;11112;51.270;7.224;2023-08-06T07:41:35;18.50;99.90
21895;DHT22;11112;51.270;7.224;2023-08-06T07:44:02;18.40;99.90
21895;DHT22;11112;51.270;7.224;2023-08-06T07:46:29;18.50;99.90
21895;DHT22;11112;51.270;7.224;2023-08-06T07:48:57;18.50;99.90
21895;DHT22;11112;51.270;7.224;2023-08-06T07:51:24;18.50;99.90
21895;DHT22;11112;51.270;7.224;2023-08-06T07:53:51;18.50;99.90
21895;DHT22;11112;51.270;7.224;2023-08-06T07:56:20;18.50;99.90
21895;DHT22;11112;51.270;7.224;2023-08-06T07:58:47;18.50;99.90
21895;DHT22;11112;51.270;7.224;2023-08-06T08:01:14;18.40;99.90
21895;DHT22;11112;51.270;7.224;2023-08-06T08:03:41;18.50;99.90
21895;DHT22;11112;51.270;7.224;2023-08-06T08:06:08;18.50;99.90
21895;DHT22;11112;51.270;7.224;2023-08-06T08:08:35;18.50;99.90
21895;DHT22;11112;51.270;7.224;2023-08-06T08:11:04;18.50;99.90
21895;DHT22;11112;51.270;7.224;2023-08-06T08:13:33;18.50;99.90
21895;DHT22;11112;51.270;7.224;2023-08-06T08:16:01;18.50;99.90
21895;DHT22;11112;51.270;7.224;2023-08-06T08:18:28;18.50;99.90
21895;DHT22;11112;51.270;7.224;2023-08-06T08:20:57;18.50;99.90
21895;DHT22;11112;51.270;7.224;2023-08-06T08:23:24;18.50;99.90
21895;DHT22;11112;51.270;7.224;2023-08-06T08:25:51;18.50;99.90
21895;DHT22;11112;51.270;7.224;2023-08-06T08:28:18;18.50;99.90
21895;DHT22;11112;51.270;7.224;2023-08-06T08:30:47;18.50;99.90
21895;DHT22;11112;51.270;7.224;2023-08-06T08:33:14;18.50;99.90
21895;DHT22;11112;51.270;7.224;2023-08-06T08:35:41;18.50;99.90
21895;DHT22;11112;51.270;7.224;2023-08-06T08:38:08;18.50;99.90
21895;DHT22;11112;51.270;7.224;2023-08-06T08:40:39;18.50;99.90
21895;DHT22;11112;51.270;7.224;2023-08-06T08:43:11;18.50;99.90
21895;DHT22;11112;51.270;7.224;2023-08-06T08:45:40;18.50;99.90
21895;DHT22;11112;51.270;7.224;2023-08-06T08:48:12;18.40;99.90
21895;DHT22;11112;51.270;7.224;2023-08-06T08:50:42;18.40;99.90
21895;DHT22;11112;51.270;7.224;2023-08-06T08:53:11;18.40;99.90
21895;DHT22;11112;51.270;7.224;2023-08-06T08:55:38;18.50;99.90
21895;DHT22;11112;51.270;7.224;2023-08-06T08:58:06;18.50;99.90
21895;DHT22;11112;51.270;7.224;2023-08-06T09:00:34;18.50;99.90
21895;DHT22;11112;51.270;7.224;2023-08-06T09:03:02;18.50;99.90
21895;DHT22;11112;51.270;7.224;2023-08-06T09:05:34;18.50;99.90
21895;DHT22;11112;51.270;7.224;2023-08-06T09:08:03;18.50;99.90
21895;DHT22;11112;51.270;7.224;2023-08-06T09:10:31;18.50;99.90
21895;DHT22;11112;51.270;7.224;2023-08-06T09:12:58;18.50;99.90
21895;DHT22;11112;51.270;7.224;2023-08-06T09:15:27;18.50;99.90
21895;DHT22;11112;51.270;7.224;2023-08-06T09:17:54;18.50;99.90
21895;DHT22;11112;51.270;7.224;2023-08-06T09:20:22;18.50;99.90
21895;DHT22;11112;51.270;7.224;2023-08-06T09:22:52;18.50;99.90
21895;DHT22;11112;51.270;7.224;2023-08-06T09:25:21;18.50;99.90
21895;DHT22;11112;51.270;7.224;2023-08-06T09:27:51;18.50;99.90
21895;DHT22;11112;51.270;7.224;2023-08-06T09:30:29;18.50;99.90
21895;DHT22;11112;51.270;7.224;2023-08-06T09:32:57;18.50;99.90
21895;DHT22;11112;51.270;7.224;2023-08-06T09:35:24;18.50;99.90
21895;DHT22;11112;51.270;7.224;2023-08-06T09:37:53;18.50;99.90
21895;DHT22;11112;51.270;7.224;2023-08-06T09:40:27;18.50;99.90
21895;DHT22;11112;51.270;7.224;2023-08-06T09:42:55;18.50;99.90
21895;DHT22;11112;51.270;7.224;2023-08-06T09:45:23;18.50;99.90
21895;DHT22;11112;51.270;7.224;2023-08-06T09:47:50;18.60;99.90
21895;DHT22;11112;51.270;7.224;2023-08-06T09:50:23;18.60;99.90
21895;DHT22;11112;51.270;7.224;2023-08-06T09:52:57;18.60;99.90
21895;DHT22;11112;51.270;7.224;2023-08-06T09:55:25;18.60;99.90
21895;DHT22;11112;51.270;7.224;2023-08-06T09:57:53;18.60;99.90
21895;DHT22;11112;51.270;7.224;2023-08-06T10:00:21;18.70;99.90
21895;DHT22;11112;51.270;7.224;2023-08-06T10:02:49;18.70;99.90
21895;DHT22;11112;51.270;7.224;2023-08-06T10:05:21;18.60;99.90
21895;DHT22;11112;51.270;7.224;2023-08-06T10:07:49;18.60;99.90
21895;DHT22;11112;51.270;7.224;2023-08-06T10:10:18;18.60;99.90
21895;DHT22;11112;51.270;7.224;2023-08-06T10:12:48;18.60;99.90
21895;DHT22;11112;51.270;7.224;2023-08-06T10:15:21;18.60;99.90
21895;DHT22;11112;51.270;7.224;2023-08-06T10:17:56;18.60;99.90
21895;DHT22;11112;51.270;7.224;2023-08-06T10:20:24;18.60;99.90
21895;DHT22;11112;51.270;7.224;2023-08-06T10:23:01;18.70;99.90
21895;DHT22;11112;51.270;7.224;2023-08-06T10:25:32;18.70;99.90
21895;DHT22;11112;51.270;7.224;2023-08-06T10:28:00;18.70;99.90
21895;DHT22;11112;51.270;7.224;2023-08-06T10:30:29;18.80;99.90
21895;DHT22;11112;51.270;7.224;2023-08-06T10:32:58;18.80;99.90
21895;DHT22;11112;51.270;7.224;2023-08-06T10:35:31;18.80;99.90
21895;DHT22;11112;51.270;7.224;2023-08-06T10:38:05;18.90;99.90
21895;DHT22;11112;51.270;7.224;2023-08-06T10:40:37;18.90;99.90
21895;DHT22;11112;51.270;7.224;2023-08-06T10:43:06;18.80;99.90
21895;DHT22;11112;51.270;7.224;2023-08-06T10:45:36;18.70;99.90
21895;DHT22;11112;51.270;7.224;2023-08-06T10:48:05;18.70;99.90
21895;DHT22;11112;51.270;7.224;2023-08-06T10:50:32;18.60;99.90
21895;DHT22;11112;51.270;7.224;2023-08-06T10:53:04;18.60;99.90
21895;DHT22;11112;51.270;7.224;2023-08-06T10:55:32;18.60;99.90
21895;DHT22;11112;51.270;7.224;2023-08-06T10:58:01;18.50;99.90
21895;DHT22;11112;51.270;7.224;2023-08-06T11:00:28;18.50;99.90
21895;DHT22;11112;51.270;7.224;2023-08-06T11:02:55;18.50;99.90
21895;DHT22;11112;51.270;7.224;2023-08-06T11:05:22;18.50;99.90
21895;DHT22;11112;51.270;7.224;2023-08-06T11:07:49;18.50;99.90
21895;DHT22;11112;51.270;7.224;2023-08-06T11:10:18;18.50;99.90
21895;DHT22;11112;51.270;7.224;2023-08-06T11:12:45;18.50;99.90
21895;DHT22;11112;51.270;7.224;2023-08-06T11:15:13;18.50;99.90
21895;DHT22;11112;51.270;7.224;2023-08-06T11:17:41;18.50;99.90
21895;DHT22;11112;51.270;7.224;2023-08-06T11:20:09;18.50;99.90
21895;DHT22;11112;51.270;7.224;2023-08-06T11:22:37;18.50;99.90
21895;DHT22;11112;51.270;7.224;2023-08-06T11:25:06;18.50;99.90
21895;DHT22;11112;51.270;7.224;2023-08-06T11:27:34;18.40;99.90
21895;DHT22;11112;51.270;7.224;2023-08-06T11:30:01;18.40;99.90
21895;DHT22;11112;51.270;7.224;2023-08-06T11:32:30;18.30;99.90
21895;DHT22;11112;51.270;7.224;2023-08-06T11:34:59;18.30;99.90
21895;DHT22;11112;51.270;7.224;2023-08-06T11:37:26;18.20;99.90
21895;DHT22;11112;51.270;7.224;2023-08-06T11:39:53;18.20;99.90
21895;DHT22;11112;51.270;7.224;2023-08-06T11:42:21;18.20;99.90
21895;DHT22;11112;51.270;7.224;2023-08-06T11:44:50;18.20;99.90
21895;DHT22;11112;51.270;7.224;2023-08-06T11:47:18;18.20;99.90
21895;DHT22;11112;51.270;7.224;2023-08-06T11:49:48;18.20;99.90
21895;DHT22;11112;51.270;7.224;2023-08-06T11:52:17;18.20;99.90
21895;DHT22;11112;51.270;7.224;2023-08-06T11:54:47;18.10;99.90
21895;DHT22;11112;51.270;7.224;2023-08-06T11:57:15;18.10;99.90
21895;DHT22;11112;51.270;7.224;2023-08-06T11:59:43;18.10;99.90
21895;DHT22;11112;51.270;7.224;2023-08-06T12:02:10;18.10;99.90
21895;DHT22;11112;51.270;7.224;2023-08-06T12:05:01;18.10;99.90
21895;DHT22;11112;51.270;7.224;2023-08-06T12:07:31;18.10;99.90
21895;DHT22;11112;51.270;7.224;2023-08-06T12:09:59;18.10;99.90
21895;DHT22;11112;51.270;7.224;2023-08-06T12:12:26;18.00;99.90
21895;DHT22;11112;51.270;7.224;2023-08-06T12:14:54;18.00;99.90
21895;DHT22;11112;51.270;7.224;2023-08-06T12:17:22;18.00;99.90
21895;DHT22;11112;51.270;7.224;2023-08-06T12:19:49;17.90;99.90
21895;DHT22;11112;51.270;7.224;2023-08-06T12:22:18;18.00;99.90
21895;DHT22;11112;51.270;7.224;2023-08-06T12:24:46;17.90;99.90
21895;DHT22;11112;51.270;7.224;2023-08-06T12:27:14;17.90;99.90
21895;DHT22;11112;51.270;7.224;2023-08-06T12:29:42;17.90;99.90
21895;DHT22;11112;51.270;7.224;2023-08-06T12:32:10;17.80;99.90
21895;DHT22;11112;51.270;7.224;2023-08-06T12:34:38;17.80;99.90
21895;DHT22;11112;51.270;7.224;2023-08-06T12:37:05;17.80;99.90
21895;DHT22;11112;51.270;7.224;2023-08-06T12:39:35;17.70;99.90
21895;DHT22;11112;51.270;7.224;2023-08-06T12:42:04;17.70;99.90
21895;DHT22;11112;51.270;7.224;2023-08-06T12:44:32;17.70;99.90
21895;DHT22;11112;51.270;7.224;2023-08-06T12:46:59;17.70;99.90
21895;DHT22;11112;51.270;7.224;2023-08-06T12:49:26;17.60;99.90
21895;DHT22;11112;51.270;7.224;2023-08-06T12:51:54;17.60;99.90
21895;DHT22;11112;51.270;7.224;2023-08-06T12:54:23;17.60;99.90
21895;DHT22;11112;51.270;7.224;2023-08-06T12:56:51;17.60;99.90
21895;DHT22;11112;51.270;7.224;2023-08-06T12:59:19;17.60;99.90
21895;DHT22;11112;51.270;7.224;2023-08-06T13:01:46;17.60;99.90
21895;DHT22;11112;51.270;7.224;2023-08-06T13:04:14;17.60;99.90
21895;DHT22;11112;51.270;7.224;2023-08-06T13:06:41;17.60;99.90
21895;DHT22;11112;51.270;7.224;2023-08-06T13:09:08;17.60;99.90
21895;DHT22;11112;51.270;7.224;2023-08-06T13:11:36;17.60;99.90
21895;DHT22;11112;51.270;7.224;2023-08-06T13:14:08;17.60;99.90
21895;DHT22;11112;51.270;7.224;2023-08-06T13:16:37;17.60;99.90
21895;DHT22;11112;51.270;7.224;2023-08-06T13:19:05;17.50;99.90
21895;DHT22;11112;51.270;7.224;2023-08-06T13:21:34;17.50;99.90
21895;DHT22;11112;51.270;7.224;2023-08-06T13:24:02;17.50;99.90
21895;DHT22;11112;51.270;7.224;2023-08-06T13:26:30;17.50;99.90
21895;DHT22;11112;51.270;7.224;2023-08-06T13:28:58;17.50;99.90
21895;DHT22;11112;51.270;7.224;2023-08-06T13:31:27;17.50;99.90
21895;DHT22;11112;51.270;7.224;2023-08-06T13:33:54;17.60;99.90
21895;DHT22;11112;51.270;7.224;2023-08-06T13:36:23;17.60;99.90
21895;DHT22;11112;51.270;7.224;2023-08-06T13:38:51;17.50;99.90
21895;DHT22;11112;51.270;7.224;2023-08-06T13:41:18;17.50;99.90
21895;DHT22;11112;51.270;7.224;2023-08-06T13:43:45;17.50;99.90
21895;DHT22;11112;51.270;7.224;2023-08-06T13:46:13;17.50;99.90
21895;DHT22;11112;51.270;7.224;2023-08-06T13:48:43;17.50;99.90
21895;DHT22;11112;51.270;7.224;2023-08-06T13:51:11;17.50;99.90
21895;DHT22;11112;51.270;7.224;2023-08-06T13:53:39;17.60;99.90
21895;DHT22;11112;51.270;7.224;2023-08-06T13:56:08;17.50;99.90
21895;DHT22;11112;51.270;7.224;2023-08-06T13:58:37;17.50;99.90
21895;DHT22;11112;51.270;7.224;2023-08-06T14:01:04;17.60;99.90
21895;DHT22;11112;51.270;7.224;2023-08-06T14:03:31;17.60;99.90
21895;DHT22;11112;51.270;7.224;2023-08-06T14:06:00;17.60;99.90
21895;DHT22;11112;51.270;7.224;2023-08-06T14:08:27;17.50;99.90
21895;DHT22;11112;51.270;7.224;2023-08-06T14:10:54;17.50;99.90
21895;DHT22;11112;51.270;7.224;2023-08-06T14:13:21;17.40;99.90
21895;DHT22;11112;51.270;7.224;2023-08-06T14:15:48;17.50;99.90
21895;DHT22;11112;51.270;7.224;2023-08-06T14:18:15;17.50;99.90
21895;DHT22;11112;51.270;7.224;2023-08-06T14:20:43;17.50;99.90
21895;DHT22;11112;51.270;7.224;2023-08-06T14:23:12;17.50;99.90
21895;DHT22;11112;51.270;7.224;2023-08-06T14:25:39;17.50;99.90
21895;DHT22;11112;51.270;7.224;2023-08-06T14:28:06;17.50;99.90
21895;DHT22;11112;51.270;7.224;2023-08-06T14:30:34;17.50;99.90
21895;DHT22;11112;51.270;7.224;2023-08-06T14:33:01;17.50;99.90
21895;DHT22;11112;51.270;7.224;2023-08-06T14:35:28;17.40;99.90
21895;DHT22;11112;51.270;7.224;2023-08-06T14:37:55;17.40;99.90
21895;DHT22;11112;51.270;7.224;2023-08-06T14:40:24;17.40;99.90
21895;DHT22;11112;51.270;7.224;2023-08-06T14:42:53;17.40;99.90
21895;DHT22;11112;51.270;7.224;2023-08-06T14:45:20;17.40;99.90
21895;DHT22;11112;51.270;7.224;2023-08-06T14:47:48;17.40;99.90
21895;DHT22;11112;51.270;7.224;2023-08-06T14:50:15;17.30;99.90
21895;DHT22;11112;51.270;7.224;2023-08-06T14:52:42;17.40;99.90
21895;DHT22;11112;51.270;7.224;2023-08-06T14:55:09;17.40;99.90
21895;DHT22;11112;51.270;7.224;2023-08-06T14:57:37;17.40;99.90
21895;DHT22;11112;51.270;7.224;2023-08-06T15:00:06;17.40;99.90
21895;DHT22;11112;51.270;7.224;2023-08-06T15:02:36;17.40;99.90
21895;DHT22;11112;51.270;7.224;2023-08-06T15:05:03;17.40;99.90
21895;DHT22;11112;51.270;7.224;2023-08-06T15:07:31;17.50;99.90
21895;DHT22;11112;51.270;7.224;2023-08-06T15:10:00;17.50;99.90
21895;DHT22;11112;51.270;7.224;2023-08-06T15:12:28;17.50;99.90
21895;DHT22;11112;51.270;7.224;2023-08-06T15:14:57;17.50;99.90
21895;DHT22;11112;51.270;7.224;2023-08-06T15:17:26;17.50;99.90
21895;DHT22;11112;51.270;7.224;2023-08-06T15:19:55;17.50;99.90
21895;DHT22;11112;51.270;7.224;2023-08-06T15:22:24;17.40;99.90
21895;DHT22;11112;51.270;7.224;2023-08-06T15:24:52;17.40;99.90
21895;DHT22;11112;51.270;7.224;2023-08-06T15:27:19;17.40;99.90
21895;DHT22;11112;51.270;7.224;2023-08-06T15:29:46;17.40;99.90
21895;DHT22;11112;51.270;7.224;2023-08-06T15:32:14;17.40;99.90
21895;DHT22;11112;51.270;7.224;2023-08-06T15:34:42;17.50;99.90
21895;DHT22;11112;51.270;7.224;2023-08-06T15:37:09;17.50;99.90